sensor_id;sensor_type;location;lat;lon;timestamp;P1;durP1;ratioP1;P2;durP2;ratioP2
15476;SDS011;7840;42.702;23.296;2023-05-07T00:00:23;12.73;;;9.87;;
15476;SDS011;7840;42.702;23.296;2023-05-07T00:02:52;10.77;;;8.97;;
15476;SDS011;7840;42.702;23.296;2023-05-07T00:05:19;11.00;;;9.50;;
15476;SDS011;7840;42.702;23.296;2023-05-07T00:07:47;11.03;;;9.57;;
15476;SDS011;7840;42.702;23.296;2023-05-07T00:10:14;10.50;;;9.40;;
15476;SDS011;7840;42.702;23.296;2023-05-07T00:12:41;11.33;;;8.83;;
15476;SDS011;7840;42.702;23.296;2023-05-07T00:15:09;10.57;;;9.57;;
15476;SDS011;7840;42.702;23.296;2023-05-07T00:17:36;11.27;;;8.93;;
15476;SDS011;7840;42.702;23.296;2023-05-07T00:20:06;10.93;;;9.07;;
15476;SDS011;7840;42.702;23.296;2023-05-07T00:22:33;11.43;;;9.00;;
15476;SDS011;7840;42.702;23.296;2023-05-07T00:25:01;13.27;;;9.30;;
15476;SDS011;7840;42.702;23.296;2023-05-07T00:27:28;11.73;;;8.83;;
15476;SDS011;7840;42.702;23.296;2023-05-07T00:29:55;10.53;;;9.43;;
15476;SDS011;7840;42.702;23.296;2023-05-07T00:32:23;12.20;;;9.47;;
15476;SDS011;7840;42.702;23.296;2023-05-07T00:34:50;12.30;;;10.00;;
15476;SDS011;7840;42.702;23.296;2023-05-07T00:37:19;11.23;;;10.10;;
15476;SDS011;7840;42.702;23.296;2023-05-07T00:39:46;10.40;;;9.43;;
15476;SDS011;7840;42.702;23.296;2023-05-07T00:42:14;12.77;;;9.80;;
15476;SDS011;7840;42.702;23.296;2023-05-07T00:44:41;9.47;;;8.57;;
15476;SDS011;7840;42.702;23.296;2023-05-07T00:47:08;12.37;;;9.13;;
15476;SDS011;7840;42.702;23.296;2023-05-07T00:49:37;9.73;;;8.70;;
15476;SDS011;7840;42.702;23.296;2023-05-07T00:52:05;12.03;;;9.37;;
15476;SDS011;7840;42.702;23.296;2023-05-07T00:54:34;11.17;;;9.17;;
15476;SDS011;7840;42.702;23.296;2023-05-07T00:57:02;15.70;;;9.87;;
15476;SDS011;7840;42.702;23.296;2023-05-07T00:59:30;11.33;;;9.03;;
15476;SDS011;7840;42.702;23.296;2023-05-07T01:01:57;9.83;;;8.93;;
15476;SDS011;7840;42.702;23.296;2023-05-07T01:04:25;12.83;;;10.90;;
15476;SDS011;7840;42.702;23.296;2023-05-07T01:06:53;16.17;;;10.07;;
15476;SDS011;7840;42.702;23.296;2023-05-07T01:09:22;11.07;;;9.63;;
15476;SDS011;7840;42.702;23.296;2023-05-07T01:11:51;10.60;;;9.37;;
15476;SDS011;7840;42.702;23.296;2023-05-07T01:14:19;9.97;;;9.07;;
15476;SDS011;7840;42.702;23.296;2023-05-07T01:16:47;11.23;;;9.30;;
15476;SDS011;7840;42.702;23.296;2023-05-07T01:19:16;12.27;;;10.10;;
15476;SDS011;7840;42.702;23.296;2023-05-07T01:24:50;12.03;;;10.77;;
15476;SDS011;7840;42.702;23.296;2023-05-07T01:27:19;13.90;;;11.13;;
15476;SDS011;7840;42.702;23.296;2023-05-07T01:29:46;12.10;;;10.80;;
15476;SDS011;7840;42.702;23.296;2023-05-07T01:32:13;12.83;;;11.53;;
15476;SDS011;7840;42.702;23.296;2023-05-07T01:34:43;12.67;;;11.37;;
15476;SDS011;7840;42.702;23.296;2023-05-07T01:37:11;13.33;;;11.43;;
15476;SDS011;7840;42.702;23.296;2023-05-07T01:39:39;19.33;;;12.17;;
15476;SDS011;7840;42.702;23.296;2023-05-07T01:42:08;13.87;;;12.37;;
15476;SDS011;7840;42.702;23.296;2023-05-07T01:44:35;14.57;;;12.10;;
15476;SDS011;7840;42.702;23.296;2023-05-07T01:47:03;14.97;;;12.33;;
15476;SDS011;7840;42.702;23.296;2023-05-07T01:49:31;12.80;;;11.50;;
15476;SDS011;7840;42.702;23.296;2023-05-07T01:51:58;12.93;;;11.57;;
15476;SDS011;7840;42.702;23.296;2023-05-07T01:54:26;13.13;;;11.80;;
15476;SDS011;7840;42.702;23.296;2023-05-07T01:56:54;18.53;;;12.47;;
15476;SDS011;7840;42.702;23.296;2023-05-07T01:59:23;15.43;;;11.83;;
15476;SDS011;7840;42.702;23.296;2023-05-07T02:01:51;14.10;;;11.30;;
15476;SDS011;7840;42.702;23.296;2023-05-07T02:04:18;14.60;;;11.33;;
15476;SDS011;7840;42.702;23.296;2023-05-07T02:06:46;13.03;;;10.83;;
15476;SDS011;7840;42.702;23.296;2023-05-07T02:09:13;12.93;;;11.53;;
15476;SDS011;7840;42.702;23.296;2023-05-07T02:11:41;15.47;;;12.33;;
15476;SDS011;7840;42.702;23.296;2023-05-07T02:14:08;16.67;;;11.70;;
15476;SDS011;7840;42.702;23.296;2023-05-07T02:16:37;11.87;;;10.70;;
15476;SDS011;7840;42.702;23.296;2023-05-07T02:19:04;13.07;;;11.60;;
15476;SDS011;7840;42.702;23.296;2023-05-07T02:21:32;12.70;;;11.50;;
15476;SDS011;7840;42.702;23.296;2023-05-07T02:23:59;14.30;;;11.40;;
15476;SDS011;7840;42.702;23.296;2023-05-07T02:26:26;13.50;;;11.33;;
15476;SDS011;7840;42.702;23.296;2023-05-07T02:28:53;13.17;;;11.77;;
15476;SDS011;7840;42.702;23.296;2023-05-07T02:31:21;15.27;;;12.47;;
15476;SDS011;7840;42.702;23.296;2023-05-07T02:33:53;14.07;;;12.70;;
15476;SDS011;7840;42.702;23.296;2023-05-07T02:36:20;15.23;;;13.03;;
15476;SDS011;7840;42.702;23.296;2023-05-07T02:38:47;13.83;;;12.07;;
15476;SDS011;7840;42.702;23.296;2023-05-07T02:41:15;15.20;;;11.83;;
15476;SDS011;7840;42.702;23.296;2023-05-07T02:43:42;12.40;;;11.13;;
15476;SDS011;7840;42.702;23.296;2023-05-07T02:46:09;15.33;;;11.70;;
15476;SDS011;7840;42.702;23.296;2023-05-07T02:48:37;14.90;;;12.60;;
15476;SDS011;7840;42.702;23.296;2023-05-07T02:51:06;14.33;;;11.07;;
15476;SDS011;7840;42.702;23.296;2023-05-07T02:53:33;12.93;;;11.30;;
15476;SDS011;7840;42.702;23.296;2023-05-07T02:56:00;11.80;;;10.70;;
15476;SDS011;7840;42.702;23.296;2023-05-07T02:58:28;12.13;;;11.00;;
15476;SDS011;7840;42.702;23.296;2023-05-07T03:00:55;15.23;;;11.87;;
15476;SDS011;7840;42.702;23.296;2023-05-07T03:03:22;12.97;;;11.67;;
15476;SDS011;7840;42.702;23.296;2023-05-07T03:05:50;13.73;;;12.20;;
15476;SDS011;7840;42.702;23.296;2023-05-07T03:08:18;13.03;;;11.63;;
15476;SDS011;7840;42.702;23.296;2023-05-07T03:10:46;13.33;;;11.27;;
15476;SDS011;7840;42.702;23.296;2023-05-07T03:13:13;14.30;;;12.53;;
15476;SDS011;7840;42.702;23.296;2023-05-07T03:15:41;12.37;;;11.23;;
15476;SDS011;7840;42.702;23.296;2023-05-07T03:18:08;12.87;;;11.47;;
15476;SDS011;7840;42.702;23.296;2023-05-07T03:20:35;11.40;;;10.33;;
15476;SDS011;7840;42.702;23.296;2023-05-07T03:23:03;12.53;;;11.23;;
15476;SDS011;7840;42.702;23.296;2023-05-07T03:25:31;12.63;;;11.43;;
15476;SDS011;7840;42.702;23.296;2023-05-07T03:27:59;13.13;;;11.73;;
15476;SDS011;7840;42.702;23.296;2023-05-07T03:30:26;12.80;;;11.37;;
15476;SDS011;7840;42.702;23.296;2023-05-07T03:32:53;13.37;;;11.57;;
15476;SDS011;7840;42.702;23.296;2023-05-07T03:35:21;12.30;;;11.07;;
15476;SDS011;7840;42.702;23.296;2023-05-07T03:37:48;16.70;;;10.97;;
15476;SDS011;7840;42.702;23.296;2023-05-07T03:40:16;14.17;;;10.93;;
15476;SDS011;7840;42.702;23.296;2023-05-07T03:42:44;16.30;;;12.23;;
15476;SDS011;7840;42.702;23.296;2023-05-07T03:45:12;12.57;;;11.27;;
15476;SDS011;7840;42.702;23.296;2023-05-07T03:47:39;12.53;;;11.17;;
15476;SDS011;7840;42.702;23.296;2023-05-07T03:50:06;11.77;;;10.53;;
15476;SDS011;7840;42.702;23.296;2023-05-07T03:52:34;12.17;;;10.67;;
15476;SDS011;7840;42.702;23.296;2023-05-07T03:55:01;12.43;;;11.13;;
15476;SDS011;7840;42.702;23.296;2023-05-07T03:57:28;12.33;;;11.03;;
15476;SDS011;7840;42.702;23.296;2023-05-07T03:59:57;14.30;;;10.57;;
15476;SDS011;7840;42.702;23.296;2023-05-07T04:02:24;15.83;;;11.07;;
15476;SDS011;7840;42.702;23.296;2023-05-07T04:04:52;15.43;;;10.53;;
15476;SDS011;7840;42.702;23.296;2023-05-07T04:07:19;12.07;;;10.27;;
15476;SDS011;7840;42.702;23.296;2023-05-07T04:09:46;11.57;;;10.47;;
15476;SDS011;7840;42.702;23.296;2023-05-07T04:12:14;10.87;;;9.67;;
15476;SDS011;7840;42.702;23.296;2023-05-07T04:14:41;10.77;;;9.77;;
15476;SDS011;7840;42.702;23.296;2023-05-07T04:17:10;10.27;;;9.20;;
15476;SDS011;7840;42.702;23.296;2023-05-07T04:19:38;12.70;;;10.07;;
15476;SDS011;7840;42.702;23.296;2023-05-07T04:22:10;11.10;;;9.97;;
15476;SDS011;7840;42.702;23.296;2023-05-07T04:24:37;13.23;;;9.93;;
15476;SDS011;7840;42.702;23.296;2023-05-07T04:27:05;9.83;;;8.93;;
15476;SDS011;7840;42.702;23.296;2023-05-07T04:29:32;10.83;;;9.53;;
15476;SDS011;7840;42.702;23.296;2023-05-07T04:32:00;10.47;;;9.47;;
15476;SDS011;7840;42.702;23.296;2023-05-07T04:34:29;11.83;;;9.80;;
15476;SDS011;7840;42.702;23.296;2023-05-07T04:36:58;11.90;;;10.27;;
15476;SDS011;7840;42.702;23.296;2023-05-07T04:39:26;11.80;;;9.97;;
15476;SDS011;7840;42.702;23.296;2023-05-07T04:41:53;12.13;;;10.00;;
15476;SDS011;7840;42.702;23.296;2023-05-07T04:44:20;11.03;;;9.97;;
15476;SDS011;7840;42.702;23.296;2023-05-07T04:46:48;11.67;;;10.17;;
15476;SDS011;7840;42.702;23.296;2023-05-07T04:49:15;11.07;;;9.60;;
15476;SDS011;7840;42.702;23.296;2023-05-07T04:51:44;12.43;;;10.47;;
15476;SDS011;7840;42.702;23.296;2023-05-07T04:54:11;10.13;;;9.13;;
15476;SDS011;7840;42.702;23.296;2023-05-07T04:56:39;12.37;;;10.00;;
15476;SDS011;7840;42.702;23.296;2023-05-07T04:59:06;10.63;;;9.63;;
15476;SDS011;7840;42.702;23.296;2023-05-07T05:01:34;10.87;;;9.77;;
15476;SDS011;7840;42.702;23.296;2023-05-07T05:04:01;11.27;;;8.57;;
15476;SDS011;7840;42.702;23.296;2023-05-07T05:06:28;10.80;;;9.40;;
15476;SDS011;7840;42.702;23.296;2023-05-07T05:08:57;10.33;;;9.27;;
15476;SDS011;7840;42.702;23.296;2023-05-07T05:11:24;12.83;;;10.33;;
15476;SDS011;7840;42.702;23.296;2023-05-07T05:13:52;11.00;;;9.90;;
15476;SDS011;7840;42.702;23.296;2023-05-07T05:16:19;11.60;;;10.30;;
15476;SDS011;7840;42.702;23.296;2023-05-07T05:18:47;11.20;;;10.10;;
15476;SDS011;7840;42.702;23.296;2023-05-07T05:21:14;10.60;;;9.60;;
15476;SDS011;7840;42.702;23.296;2023-05-07T05:23:41;10.93;;;9.93;;
15476;SDS011;7840;42.702;23.296;2023-05-07T05:26:10;11.93;;;10.77;;
15476;SDS011;7840;42.702;23.296;2023-05-07T05:28:37;10.87;;;9.77;;
15476;SDS011;7840;42.702;23.296;2023-05-07T05:31:05;10.98;;;9.88;;
15476;SDS011;7840;42.702;23.296;2023-05-07T05:33:32;11.27;;;10.18;;
15476;SDS011;7840;42.702;23.296;2023-05-07T05:36:00;11.45;;;10.25;;
15476;SDS011;7840;42.702;23.296;2023-05-07T05:38:27;11.75;;;10.30;;
15476;SDS011;7840;42.702;23.296;2023-05-07T05:40:54;14.52;;;10.27;;
15476;SDS011;7840;42.702;23.296;2023-05-07T05:43:23;13.93;;;10.13;;
15476;SDS011;7840;42.702;23.296;2023-05-07T05:45:50;12.15;;;10.48;;
15476;SDS011;7840;42.702;23.296;2023-05-07T05:48:18;13.65;;;11.15;;
15476;SDS011;7840;42.702;23.296;2023-05-07T05:50:45;14.40;;;11.13;;
15476;SDS011;7840;42.702;23.296;2023-05-07T05:53:12;11.85;;;10.70;;
15476;SDS011;7840;42.702;23.296;2023-05-07T05:55:40;16.35;;;11.73;;
15476;SDS011;7840;42.702;23.296;2023-05-07T05:58:08;11.45;;;10.35;;
15476;SDS011;7840;42.702;23.296;2023-05-07T06:00:37;13.93;;;11.18;;
15476;SDS011;7840;42.702;23.296;2023-05-07T06:03:05;13.55;;;11.57;;
15476;SDS011;7840;42.702;23.296;2023-05-07T06:05:32;15.05;;;10.98;;
15476;SDS011;7840;42.702;23.296;2023-05-07T06:07:59;14.90;;;11.35;;
15476;SDS011;7840;42.702;23.296;2023-05-07T06:10:26;11.57;;;10.45;;
15476;SDS011;7840;42.702;23.296;2023-05-07T06:12:55;12.93;;;11.70;;
15476;SDS011;7840;42.702;23.296;2023-05-07T06:15:22;12.73;;;11.02;;
15476;SDS011;7840;42.702;23.296;2023-05-07T06:17:51;14.43;;;10.70;;
15476;SDS011;7840;42.702;23.296;2023-05-07T06:20:21;11.88;;;10.68;;
15476;SDS011;7840;42.702;23.296;2023-05-07T06:22:48;16.00;;;11.10;;
15476;SDS011;7840;42.702;23.296;2023-05-07T06:25:15;14.73;;;11.23;;
15476;SDS011;7840;42.702;23.296;2023-05-07T06:27:42;12.30;;;10.60;;
15476;SDS011;7840;42.702;23.296;2023-05-07T06:30:13;12.50;;;11.15;;
15476;SDS011;7840;42.702;23.296;2023-05-07T06:32:40;11.27;;;10.15;;
15476;SDS011;7840;42.702;23.296;2023-05-07T06:35:09;14.23;;;10.95;;
15476;SDS011;7840;42.702;23.296;2023-05-07T06:37:37;14.88;;;10.90;;
15476;SDS011;7840;42.702;23.296;2023-05-07T06:40:05;13.02;;;10.90;;
15476;SDS011;7840;42.702;23.296;2023-05-07T06:42:32;11.23;;;10.13;;
15476;SDS011;7840;42.702;23.296;2023-05-07T06:45:00;11.27;;;10.13;;
15476;SDS011;7840;42.702;23.296;2023-05-07T06:47:27;11.80;;;10.60;;
15476;SDS011;7840;42.702;23.296;2023-05-07T06:49:55;11.73;;;10.25;;
15476;SDS011;7840;42.702;23.296;2023-05-07T06:52:23;10.90;;;9.80;;
15476;SDS011;7840;42.702;23.296;2023-05-07T06:54:54;11.13;;;9.98;;
15476;SDS011;7840;42.702;23.296;2023-05-07T06:57:21;10.10;;;9.20;;
15476;SDS011;7840;42.702;23.296;2023-05-07T06:59:49;11.25;;;10.15;;
15476;SDS011;7840;42.702;23.296;2023-05-07T07:02:16;12.57;;;10.27;;
15476;SDS011;7840;42.702;23.296;2023-05-07T07:04:43;12.63;;;9.90;;
15476;SDS011;7840;42.702;23.296;2023-05-07T07:07:10;10.90;;;9.80;;
15476;SDS011;7840;42.702;23.296;2023-05-07T07:09:39;15.60;;;9.35;;
15476;SDS011;7840;42.702;23.296;2023-05-07T07:12:06;10.70;;;9.73;;
15476;SDS011;7840;42.702;23.296;2023-05-07T07:14:34;11.05;;;9.00;;
15476;SDS011;7840;42.702;23.296;2023-05-07T07:17:01;11.52;;;9.75;;
15476;SDS011;7840;42.702;23.296;2023-05-07T07:19:30;10.75;;;9.63;;
15476;SDS011;7840;42.702;23.296;2023-05-07T07:21:57;10.30;;;9.40;;
15476;SDS011;7840;42.702;23.296;2023-05-07T07:24:24;11.55;;;9.23;;
15476;SDS011;7840;42.702;23.296;2023-05-07T07:26:53;11.02;;;10.02;;
15476;SDS011;7840;42.702;23.296;2023-05-07T07:29:20;10.50;;;9.50;;
15476;SDS011;7840;42.702;23.296;2023-05-07T07:31:48;10.82;;;9.68;;
15476;SDS011;7840;42.702;23.296;2023-05-07T07:34:15;11.02;;;9.35;;
15476;SDS011;7840;42.702;23.296;2023-05-07T07:36:42;11.98;;;10.23;;
15476;SDS011;7840;42.702;23.296;2023-05-07T07:39:09;12.35;;;9.60;;
15476;SDS011;7840;42.702;23.296;2023-05-07T07:41:37;9.35;;;8.45;;
15476;SDS011;7840;42.702;23.296;2023-05-07T07:44:05;10.73;;;9.32;;
15476;SDS011;7840;42.702;23.296;2023-05-07T07:46:33;11.13;;;8.95;;
15476;SDS011;7840;42.702;23.296;2023-05-07T07:49:01;11.15;;;8.70;;
15476;SDS011;7840;42.702;23.296;2023-05-07T07:51:28;11.43;;;9.40;;
15476;SDS011;7840;42.702;23.296;2023-05-07T07:53:55;9.93;;;9.00;;
15476;SDS011;7840;42.702;23.296;2023-05-07T07:56:23;9.63;;;8.52;;
15476;SDS011;7840;42.702;23.296;2023-05-07T07:58:50;9.65;;;8.75;;
15476;SDS011;7840;42.702;23.296;2023-05-07T08:01:19;10.07;;;9.07;;
15476;SDS011;7840;42.702;23.296;2023-05-07T08:03:46;10.98;;;8.88;;
15476;SDS011;7840;42.702;23.296;2023-05-07T08:06:14;8.77;;;7.97;;
15476;SDS011;7840;42.702;23.296;2023-05-07T08:08:41;8.85;;;8.05;;
15476;SDS011;7840;42.702;23.296;2023-05-07T08:11:08;9.45;;;8.50;;
15476;SDS011;7840;42.702;23.296;2023-05-07T08:13:35;8.30;;;7.57;;
15476;SDS011;7840;42.702;23.296;2023-05-07T08:16:03;11.23;;;8.05;;
15476;SDS011;7840;42.702;23.296;2023-05-07T08:18:32;7.97;;;7.05;;
15476;SDS011;7840;42.702;23.296;2023-05-07T08:21:00;9.13;;;7.85;;
15476;SDS011;7840;42.702;23.296;2023-05-07T08:23:27;9.25;;;7.03;;
15476;SDS011;7840;42.702;23.296;2023-05-07T08:25:55;9.13;;;7.72;;
15476;SDS011;7840;42.702;23.296;2023-05-07T08:28:22;10.63;;;6.78;;
15476;SDS011;7840;42.702;23.296;2023-05-07T08:30:50;7.53;;;6.82;;
15476;SDS011;7840;42.702;23.296;2023-05-07T08:33:17;13.43;;;6.60;;
15476;SDS011;7840;42.702;23.296;2023-05-07T08:35:46;7.60;;;6.40;;
15476;SDS011;7840;42.702;23.296;2023-05-07T08:38:13;6.72;;;6.05;;
15476;SDS011;7840;42.702;23.296;2023-05-07T08:40:40;6.60;;;6.10;;
15476;SDS011;7840;42.702;23.296;2023-05-07T08:43:08;6.78;;;6.15;;
15476;SDS011;7840;42.702;23.296;2023-05-07T08:45:35;7.18;;;5.88;;
15476;SDS011;7840;42.702;23.296;2023-05-07T08:48:05;8.65;;;6.20;;
15476;SDS011;7840;42.702;23.296;2023-05-07T08:50:35;7.60;;;5.97;;
15476;SDS011;7840;42.702;23.296;2023-05-07T08:53:04;5.47;;;4.97;;
15476;SDS011;7840;42.702;23.296;2023-05-07T08:55:31;7.72;;;5.05;;
15476;SDS011;7840;42.702;23.296;2023-05-07T08:57:59;5.72;;;5.22;;
15476;SDS011;7840;42.702;23.296;2023-05-07T09:00:26;6.55;;;5.13;;
15476;SDS011;7840;42.702;23.296;2023-05-07T09:02:53;5.90;;;5.40;;
15476;SDS011;7840;42.702;23.296;2023-05-07T09:05:21;6.30;;;5.70;;
15476;SDS011;7840;42.702;23.296;2023-05-07T09:07:48;6.30;;;5.70;;
15476;SDS011;7840;42.702;23.296;2023-05-07T09:10:17;6.00;;;5.40;;
15476;SDS011;7840;42.702;23.296;2023-05-07T09:12:44;10.32;;;5.20;;
15476;SDS011;7840;42.702;23.296;2023-05-07T09:15:13;6.00;;;5.40;;
15476;SDS011;7840;42.702;23.296;2023-05-07T09:17:40;7.97;;;5.45;;
15476;SDS011;7840;42.702;23.296;2023-05-07T09:20:08;5.45;;;5.00;;
15476;SDS011;7840;42.702;23.296;2023-05-07T09:22:36;8.07;;;5.53;;
15476;SDS011;7840;42.702;23.296;2023-05-07T09:25:04;5.50;;;4.88;;
15476;SDS011;7840;42.702;23.296;2023-05-07T09:27:33;8.70;;;5.25;;
15476;SDS011;7840;42.702;23.296;2023-05-07T09:30:02;6.35;;;4.40;;
15476;SDS011;7840;42.702;23.296;2023-05-07T09:32:33;5.65;;;4.90;;
15476;SDS011;7840;42.702;23.296;2023-05-07T09:35:01;4.78;;;4.35;;
15476;SDS011;7840;42.702;23.296;2023-05-07T09:37:28;5.55;;;4.03;;
15476;SDS011;7840;42.702;23.296;2023-05-07T09:39:57;8.48;;;4.07;;
15476;SDS011;7840;42.702;23.296;2023-05-07T09:42:25;6.18;;;4.18;;
15476;SDS011;7840;42.702;23.296;2023-05-07T09:44:54;5.32;;;4.68;;
15476;SDS011;7840;42.702;23.296;2023-05-07T09:47:23;4.93;;;4.50;;
15476;SDS011;7840;42.702;23.296;2023-05-07T09:49:50;8.27;;;4.22;;
15476;SDS011;7840;42.702;23.296;2023-05-07T09:52:20;4.50;;;4.10;;
15476;SDS011;7840;42.702;23.296;2023-05-07T09:54:48;6.15;;;3.78;;
15476;SDS011;7840;42.702;23.296;2023-05-07T09:57:15;5.18;;;3.90;;
15476;SDS011;7840;42.702;23.296;2023-05-07T09:59:43;6.18;;;3.90;;
15476;SDS011;7840;42.702;23.296;2023-05-07T10:02:11;3.90;;;3.50;;
15476;SDS011;7840;42.702;23.296;2023-05-07T10:04:41;3.85;;;3.55;;
15476;SDS011;7840;42.702;23.296;2023-05-07T10:07:08;5.68;;;3.65;;
15476;SDS011;7840;42.702;23.296;2023-05-07T10:09:36;9.93;;;3.53;;
15476;SDS011;7840;42.702;23.296;2023-05-07T10:12:07;4.20;;;3.22;;
15476;SDS011;7840;42.702;23.296;2023-05-07T10:14:34;3.88;;;3.22;;
15476;SDS011;7840;42.702;23.296;2023-05-07T10:17:02;3.50;;;3.20;;
15476;SDS011;7840;42.702;23.296;2023-05-07T10:19:30;3.60;;;3.30;;
15476;SDS011;7840;42.702;23.296;2023-05-07T10:21:59;3.30;;;3.00;;
15476;SDS011;7840;42.702;23.296;2023-05-07T10:24:32;4.68;;;3.15;;
15476;SDS011;7840;42.702;23.296;2023-05-07T10:27:00;3.70;;;3.13;;
15476;SDS011;7840;42.702;23.296;2023-05-07T10:29:30;4.57;;;3.05;;
15476;SDS011;7840;42.702;23.296;2023-05-07T10:32:05;3.10;;;2.80;;
15476;SDS011;7840;42.702;23.296;2023-05-07T10:34:36;4.13;;;3.33;;
15476;SDS011;7840;42.702;23.296;2023-05-07T10:37:04;4.88;;;3.15;;
15476;SDS011;7840;42.702;23.296;2023-05-07T10:39:32;3.25;;;2.95;;
15476;SDS011;7840;42.702;23.296;2023-05-07T10:42:07;3.92;;;3.63;;
15476;SDS011;7840;42.702;23.296;2023-05-07T10:44:34;3.40;;;3.10;;
15476;SDS011;7840;42.702;23.296;2023-05-07T10:47:06;6.18;;;3.03;;
15476;SDS011;7840;42.702;23.296;2023-05-07T10:49:36;4.53;;;3.15;;
15476;SDS011;7840;42.702;23.296;2023-05-07T10:52:13;4.85;;;3.15;;
15476;SDS011;7840;42.702;23.296;2023-05-07T10:54:41;4.28;;;3.47;;
15476;SDS011;7840;42.702;23.296;2023-05-07T10:59:54;6.00;;;3.60;;
15476;SDS011;7840;42.702;23.296;2023-05-07T11:02:21;4.45;;;3.45;;
15476;SDS011;7840;42.702;23.296;2023-05-07T11:07:32;4.07;;;3.58;;
15476;SDS011;7840;42.702;23.296;2023-05-07T11:10:00;4.60;;;3.72;;
15476;SDS011;7840;42.702;23.296;2023-05-07T11:12:48;4.40;;;4.05;;
15476;SDS011;7840;42.702;23.296;2023-05-07T11:15:16;4.22;;;3.33;;
15476;SDS011;7840;42.702;23.296;2023-05-07T11:18:00;2.95;;;2.75;;
15476;SDS011;7840;42.702;23.296;2023-05-07T11:26:07;3.40;;;2.80;;
15476;SDS011;7840;42.702;23.296;2023-05-07T11:28:36;2.63;;;2.42;;
15476;SDS011;7840;42.702;23.296;2023-05-07T11:31:04;2.75;;;2.55;;
15476;SDS011;7840;42.702;23.296;2023-05-07T11:33:31;2.75;;;2.55;;
15476;SDS011;7840;42.702;23.296;2023-05-07T11:35:59;3.42;;;2.63;;
15476;SDS011;7840;42.702;23.296;2023-05-07T11:38:27;3.17;;;2.88;;
15476;SDS011;7840;42.702;23.296;2023-05-07T11:41:01;3.33;;;3.03;;
15476;SDS011;7840;42.702;23.296;2023-05-07T11:43:32;4.00;;;2.88;;
15476;SDS011;7840;42.702;23.296;2023-05-07T11:46:08;5.53;;;3.15;;
15476;SDS011;7840;42.702;23.296;2023-05-07T11:48:35;4.35;;;3.20;;
15476;SDS011;7840;42.702;23.296;2023-05-07T11:51:03;4.00;;;3.50;;
15476;SDS011;7840;42.702;23.296;2023-05-07T11:53:35;3.80;;;2.72;;
15476;SDS011;7840;42.702;23.296;2023-05-07T11:56:05;5.10;;;2.67;;
15476;SDS011;7840;42.702;23.296;2023-05-07T11:58:34;3.42;;;2.65;;
15476;SDS011;7840;42.702;23.296;2023-05-07T12:01:01;2.90;;;2.60;;
15476;SDS011;7840;42.702;23.296;2023-05-07T12:03:29;2.25;;;2.15;;
15476;SDS011;7840;42.702;23.296;2023-05-07T12:05:56;3.28;;;2.17;;
15476;SDS011;7840;42.702;23.296;2023-05-07T12:08:23;3.67;;;2.40;;
15476;SDS011;7840;42.702;23.296;2023-05-07T12:10:53;3.83;;;2.33;;
15476;SDS011;7840;42.702;23.296;2023-05-07T12:13:21;2.40;;;2.20;;
15476;SDS011;7840;42.702;23.296;2023-05-07T12:15:51;2.95;;;2.67;;
15476;SDS011;7840;42.702;23.296;2023-05-07T12:18:19;2.60;;;2.40;;
15476;SDS011;7840;42.702;23.296;2023-05-07T12:20:46;2.58;;;2.38;;
15476;SDS011;7840;42.702;23.296;2023-05-07T12:23:14;2.67;;;2.45;;
15476;SDS011;7840;42.702;23.296;2023-05-07T12:25:42;2.65;;;2.45;;
15476;SDS011;7840;42.702;23.296;2023-05-07T12:28:12;5.50;;;2.50;;
15476;SDS011;7840;42.702;23.296;2023-05-07T12:30:40;2.67;;;2.47;;
15476;SDS011;7840;42.702;23.296;2023-05-07T12:33:09;4.35;;;2.80;;
15476;SDS011;7840;42.702;23.296;2023-05-07T12:35:37;2.70;;;2.50;;
15476;SDS011;7840;42.702;23.296;2023-05-07T12:38:07;3.28;;;2.90;;
15476;SDS011;7840;42.702;23.296;2023-05-07T12:40:36;2.92;;;2.67;;
15476;SDS011;7840;42.702;23.296;2023-05-07T12:43:03;5.72;;;2.65;;
15476;SDS011;7840;42.702;23.296;2023-05-07T12:45:30;5.97;;;2.78;;
15476;SDS011;7840;42.702;23.296;2023-05-07T12:48:01;3.65;;;2.80;;
15476;SDS011;7840;42.702;23.296;2023-05-07T12:50:32;4.03;;;2.67;;
15476;SDS011;7840;42.702;23.296;2023-05-07T12:52:59;2.83;;;2.63;;
15476;SDS011;7840;42.702;23.296;2023-05-07T12:55:28;2.42;;;2.22;;
15476;SDS011;7840;42.702;23.296;2023-05-07T12:57:55;3.33;;;2.60;;
15476;SDS011;7840;42.702;23.296;2023-05-07T13:00:33;3.28;;;2.55;;
15476;SDS011;7840;42.702;23.296;2023-05-07T13:03:00;2.90;;;2.63;;
15476;SDS011;7840;42.702;23.296;2023-05-07T13:05:27;5.82;;;2.65;;
15476;SDS011;7840;42.702;23.296;2023-05-07T13:07:56;3.55;;;2.80;;
15476;SDS011;7840;42.702;23.296;2023-05-07T13:10:24;2.90;;;2.60;;
15476;SDS011;7840;42.702;23.296;2023-05-07T13:12:51;3.45;;;2.60;;
15476;SDS011;7840;42.702;23.296;2023-05-07T13:15:19;2.63;;;2.42;;
15476;SDS011;7840;42.702;23.296;2023-05-07T13:17:46;3.60;;;2.45;;
15476;SDS011;7840;42.702;23.296;2023-05-07T13:20:14;3.95;;;2.80;;
15476;SDS011;7840;42.702;23.296;2023-05-07T13:22:41;5.32;;;2.53;;
15476;SDS011;7840;42.702;23.296;2023-05-07T13:25:10;3.00;;;2.67;;
15476;SDS011;7840;42.702;23.296;2023-05-07T13:27:38;3.88;;;2.95;;
15476;SDS011;7840;42.702;23.296;2023-05-07T13:30:05;3.25;;;2.60;;
15476;SDS011;7840;42.702;23.296;2023-05-07T13:32:33;4.35;;;2.38;;
15476;SDS011;7840;42.702;23.296;2023-05-07T13:35:00;3.17;;;2.53;;
15476;SDS011;7840;42.702;23.296;2023-05-07T13:37:28;3.78;;;2.65;;
15476;SDS011;7840;42.702;23.296;2023-05-07T13:39:55;3.55;;;2.50;;
15476;SDS011;7840;42.702;23.296;2023-05-07T13:42:24;2.88;;;2.58;;
15476;SDS011;7840;42.702;23.296;2023-05-07T13:44:51;2.70;;;2.50;;
15476;SDS011;7840;42.702;23.296;2023-05-07T13:47:18;3.25;;;2.83;;
15476;SDS011;7840;42.702;23.296;2023-05-07T13:49:46;2.63;;;2.30;;
15476;SDS011;7840;42.702;23.296;2023-05-07T13:52:15;3.40;;;2.33;;
15476;SDS011;7840;42.702;23.296;2023-05-07T13:54:42;2.70;;;2.50;;
15476;SDS011;7840;42.702;23.296;2023-05-07T13:57:10;4.22;;;2.70;;
15476;SDS011;7840;42.702;23.296;2023-05-07T13:59:38;2.33;;;2.13;;
15476;SDS011;7840;42.702;23.296;2023-05-07T14:02:06;3.67;;;2.60;;
15476;SDS011;7840;42.702;23.296;2023-05-07T14:04:34;3.22;;;2.92;;
15476;SDS011;7840;42.702;23.296;2023-05-07T14:07:02;3.63;;;2.70;;
15476;SDS011;7840;42.702;23.296;2023-05-07T14:09:30;4.60;;;2.67;;
15476;SDS011;7840;42.702;23.296;2023-05-07T14:11:58;3.83;;;2.42;;
15476;SDS011;7840;42.702;23.296;2023-05-07T14:14:26;2.63;;;2.45;;
15476;SDS011;7840;42.702;23.296;2023-05-07T14:16:55;2.97;;;2.75;;
15476;SDS011;7840;42.702;23.296;2023-05-07T14:19:22;3.15;;;2.72;;
15476;SDS011;7840;42.702;23.296;2023-05-07T14:21:49;4.90;;;2.55;;
15476;SDS011;7840;42.702;23.296;2023-05-07T14:24:17;3.33;;;2.50;;
15476;SDS011;7840;42.702;23.296;2023-05-07T14:26:44;4.20;;;2.90;;
15476;SDS011;7840;42.702;23.296;2023-05-07T14:29:11;4.70;;;3.00;;
15476;SDS011;7840;42.702;23.296;2023-05-07T14:31:40;2.60;;;2.40;;
15476;SDS011;7840;42.702;23.296;2023-05-07T14:34:09;3.60;;;2.30;;
15476;SDS011;7840;42.702;23.296;2023-05-07T14:36:36;3.03;;;2.65;;
15476;SDS011;7840;42.702;23.296;2023-05-07T14:39:04;2.67;;;2.42;;
15476;SDS011;7840;42.702;23.296;2023-05-07T14:41:31;6.55;;;2.88;;
15476;SDS011;7840;42.702;23.296;2023-05-07T14:43:58;3.60;;;2.75;;
15476;SDS011;7840;42.702;23.296;2023-05-07T14:46:26;2.67;;;2.47;;
15476;SDS011;7840;42.702;23.296;2023-05-07T14:48:53;4.07;;;2.50;;
15476;SDS011;7840;42.702;23.296;2023-05-07T14:51:21;2.83;;;2.53;;
15476;SDS011;7840;42.702;23.296;2023-05-07T14:53:49;2.75;;;2.10;;